Home > Products > Valid Products > TAF

000
FTUS43 KIWX 220500
TAFFWA
TAF
KFWA 220528Z 2206/2306 19003KT P6SM SKC
      TEMPO 2209/2212 5SM BR
     FM221500 22012KT P6SM SCT250
     FM230000 22007KT P6SM SCT050=



000
FTUS43 KIWX 212300
TAFFWA
TAF
KFWA 212320Z 2200/2224 12003KT P6SM SKC
      TEMPO 2209/2212 5SM BR
     FM221500 18009KT P6SM SCT250=



000
FTUS43 KIWX 211700
TAFFWA
TAF
KFWA 211723Z 2118/2218 18005KT P6SM SCT050
     FM220000 12003KT P6SM SKC
      TEMPO 2209/2212 5SM BR
     FM221500 18009KT P6SM SCT250=



000
FTUS43 KIWX 211100
TAFFWA
TAF
KFWA 211122Z 2112/2212 VRB03KT 4SM BR SCT250
     FM211300 18005KT P6SM SCT050
     FM220000 12003KT P6SM SKC
      TEMPO 2209/2212 5SM BR=



000
FTUS43 KIWX 210500
TAFFWA
TAF
KFWA 210529Z 2106/2206 VRB03KT P6SM SCT250
      TEMPO 2109/2112 3SM BR
     FM211400 18005KT P6SM SCT050
     FM220000 12003KT P6SM SKC=



000
FTUS43 KIWX 202300
TAFFWA
TAF
KFWA 202324Z 2100/2124 VRB03KT P6SM FEW060 BKN250
      TEMPO 2109/2112 3SM BR
     FM211400 17006KT P6SM SCT250=



000
FTUS43 KIWX 201700
TAFFWA
TAF
KFWA 201730Z 2018/2118 10004KT P6SM BKN035
     FM210100 16003KT P6SM SKC
      TEMPO 2109/2112 3SM BR=



000
FTUS43 KIWX 201100
TAFFWA
TAF
KFWA 201120Z 2012/2112 00000KT 3SM BR SCT005
      TEMPO 2012/2013 1SM BR
     FM201300 07003KT P6SM SCT025
     FM201600 10004KT P6SM SCT045
     FM210300 16003KT P6SM SKC
      TEMPO 2109/2112 3SM BR=



000
FTUS43 KIWX 200500
TAFFWA
TAF
KFWA 200521Z 2006/2106 00000KT P6SM FEW070
     FM200700 00000KT 5SM BR SCT010
      TEMPO 2008/2012 2SM BR
     FM201300 07003KT P6SM SCT025
     FM201600 10004KT P6SM SCT045=



000
FTUS43 KIWX 192300
TAFFWA
TAF
KFWA 192338Z 2000/2024 VRB03KT P6SM SCT040
     FM200700 00000KT 5SM BR SCT010
      TEMPO 2008/2012 2SM BR
     FM201300 07003KT P6SM SCT025=



000
FTUS43 KIWX 191700
TAFFWA
TAF
KFWA 191720Z 1918/2018 08007KT P6SM BKN025
     FM191900 08006KT P6SM SCT030 BKN040
     FM200100 VRB02KT P6SM SCT040
     FM200700 00000KT 5SM BR SCT010
      TEMPO 2008/2012 2SM BR BKN007
     FM201300 07003KT P6SM SCT025=



000
FTUS43 KIWX 191500 AAA
TAFFWA
TAF AMD
KFWA 191532Z 1916/2012 07007KT P6SM OVC045
     FM191800 10004KT P6SM BKN040
     FM200600 00000KT 5SM BR SCT040=



000
FTUS43 KIWX 191100
TAFFWA
TAF
KFWA 191120Z 1912/2012 07003KT P6SM BKN020 OVC040
     FM191800 10003KT P6SM BKN040
     FM200600 00000KT 5SM BR SCT040=



    US Dept of Commerce
    National Oceanic and Atmospheric Administration
    National Weather Service
    1325 East West Highway
    Silver Spring, MD 20910
    Page Author: NWS Internet Services Team
Disclaimer
Information Quality
Credits
Glossary
Privacy Policy
Freedom of Information Act (FOIA)
About Us
Career Opportunities